createdAt,value
2018-12-22T00:01:02.192Z,982.61
2018-12-22T00:02:08.885Z,982.56
2018-12-22T00:03:16.177Z,982.56
2018-12-22T00:04:23.120Z,982.60
2018-12-22T00:05:29.772Z,982.67
2018-12-22T00:06:37.045Z,982.55
2018-12-22T00:07:43.824Z,982.63
2018-12-22T00:08:50.595Z,982.63
2018-12-22T00:09:57.335Z,982.63
2018-12-22T00:11:04.111Z,982.59
2018-12-22T00:12:11.868Z,982.59
2018-12-22T00:13:17.774Z,982.69
2018-12-22T00:14:25.033Z,982.56
2018-12-22T00:15:33.247Z,982.52
2018-12-22T00:16:38.665Z,982.51
2018-12-22T00:17:45.308Z,982.46
2018-12-22T00:18:52.481Z,982.58
2018-12-22T00:20:00.786Z,982.50
2018-12-22T00:21:07.180Z,982.52
2018-12-22T00:22:13.930Z,982.37
2018-12-22T00:23:20.656Z,982.37
2018-12-22T00:24:27.378Z,982.32
2018-12-22T00:25:34.337Z,982.35
2018-12-22T00:26:41.071Z,982.32
2018-12-22T00:27:47.913Z,982.40
2018-12-22T00:28:55.009Z,982.35
2018-12-22T00:30:01.673Z,982.29
2018-12-22T00:31:08.753Z,982.39
2018-12-22T00:32:15.412Z,982.35
2018-12-22T00:33:22.980Z,982.31
2018-12-22T00:34:30.427Z,982.32
2018-12-22T00:35:36.958Z,982.37
2018-12-22T00:36:43.702Z,982.35
2018-12-22T00:37:50.561Z,982.44
2018-12-22T00:38:57.360Z,982.32
2018-12-22T00:40:04.184Z,982.35
2018-12-22T00:41:10.965Z,982.39
2018-12-22T00:42:17.752Z,982.41
2018-12-22T00:43:24.588Z,982.38
2018-12-22T00:44:31.280Z,982.36
2018-12-22T00:45:38.087Z,982.40
2018-12-22T00:46:44.792Z,982.37
2018-12-22T00:47:51.660Z,982.39
2018-12-22T00:48:58.345Z,982.41
2018-12-22T00:50:05.600Z,982.38
2018-12-22T00:51:12.276Z,982.38
2018-12-22T00:52:19.021Z,982.43
2018-12-22T00:53:25.734Z,982.45
2018-12-22T00:54:32.476Z,982.47
2018-12-22T00:55:39.221Z,982.45
2018-12-22T00:56:45.985Z,982.38
2018-12-22T00:57:52.756Z,982.47
2018-12-22T00:58:59.530Z,982.41
2018-12-22T01:00:06.402Z,982.45
2018-12-22T01:01:13.347Z,982.44
2018-12-22T01:02:20.224Z,982.48
2018-12-22T01:03:27.001Z,982.55
2018-12-22T01:04:33.657Z,982.48
2018-12-22T01:05:40.920Z,982.55
2018-12-22T01:06:47.705Z,982.56
2018-12-22T01:07:54.453Z,982.57
2018-12-22T01:09:01.213Z,982.60
2018-12-22T01:10:08.321Z,982.61
2018-12-22T01:11:15.063Z,982.55
2018-12-22T01:12:21.827Z,982.54
2018-12-22T01:13:29.020Z,982.48
2018-12-22T01:14:35.683Z,982.61
2018-12-22T01:15:42.432Z,982.68
2018-12-22T01:16:49.256Z,982.62
2018-12-22T01:17:55.950Z,982.60
2018-12-22T01:19:02.618Z,982.65
2018-12-22T01:20:09.827Z,982.75
2018-12-22T01:21:16.463Z,982.64
2018-12-22T01:22:23.828Z,982.61
2018-12-22T01:23:30.484Z,982.59
2018-12-22T01:24:37.692Z,982.65
2018-12-22T01:25:44.456Z,982.67
2018-12-22T01:26:51.308Z,982.73
2018-12-22T01:27:58.064Z,982.73
2018-12-22T01:29:04.941Z,982.61
2018-12-22T01:30:11.505Z,982.66
2018-12-22T01:31:18.153Z,982.68
2018-12-22T01:32:25.748Z,982.67
2018-12-22T01:33:32.296Z,982.61
2018-12-22T01:34:39.572Z,982.73
2018-12-22T01:35:46.236Z,982.63
2018-12-22T01:36:52.933Z,982.62
2018-12-22T01:37:59.592Z,982.64
2018-12-22T01:39:06.841Z,982.69
2018-12-22T01:40:13.632Z,982.71
2018-12-22T01:41:20.484Z,982.73
2018-12-22T01:42:27.136Z,982.68
2018-12-22T01:43:33.816Z,982.61
2018-12-22T01:44:40.527Z,982.80
2018-12-22T01:45:47.768Z,982.73
2018-12-22T01:46:54.501Z,982.76
2018-12-22T01:48:01.173Z,982.68
2018-12-22T01:49:08.447Z,982.69
2018-12-22T01:50:15.125Z,982.63
2018-12-22T01:51:21.981Z,982.67
2018-12-22T01:52:28.744Z,982.72
2018-12-22T01:53:35.504Z,982.68
2018-12-22T01:54:42.269Z,982.65
2018-12-22T01:55:49.064Z,982.63
2018-12-22T01:56:55.695Z,982.67
2018-12-22T01:58:02.947Z,982.68
2018-12-22T01:59:09.736Z,982.65
2018-12-22T02:00:16.525Z,982.75
2018-12-22T02:01:23.277Z,982.74
2018-12-22T02:02:29.997Z,982.81
2018-12-22T02:03:36.820Z,982.82
2018-12-22T02:04:43.458Z,982.68
2018-12-22T02:05:50.748Z,982.64
2018-12-22T02:06:57.416Z,982.71
2018-12-22T02:08:04.680Z,982.70
2018-12-22T02:09:11.500Z,982.56
2018-12-22T02:10:18.328Z,982.54
2018-12-22T02:11:25.276Z,982.66
2018-12-22T02:12:31.948Z,982.55
2018-12-22T02:13:38.704Z,982.62
2018-12-22T02:14:45.372Z,982.71
2018-12-22T02:15:52.184Z,982.64
2018-12-22T02:16:58.801Z,982.59
2018-12-22T02:18:06.064Z,982.67
2018-12-22T02:19:12.748Z,982.62
2018-12-22T02:20:19.961Z,982.62
2018-12-22T02:21:26.799Z,982.61
2018-12-22T02:22:33.536Z,982.67
2018-12-22T02:23:40.316Z,982.58
2018-12-22T02:24:46.976Z,982.51
2018-12-22T02:25:54.279Z,982.52
2018-12-22T02:27:00.906Z,982.49
2018-12-22T02:28:07.790Z,982.53
2018-12-22T02:29:14.708Z,982.47
2018-12-22T02:30:21.916Z,982.52
2018-12-22T02:31:28.708Z,982.56
2018-12-22T02:32:35.552Z,982.50
2018-12-22T02:33:42.224Z,982.45
2018-12-22T02:34:49.267Z,982.48
2018-12-22T02:35:56.486Z,982.38
2018-12-22T02:37:03.720Z,982.40
2018-12-22T02:38:10.720Z,982.30
2018-12-22T02:39:17.379Z,982.30
2018-12-22T02:40:24.145Z,982.25
2018-12-22T02:41:30.825Z,982.27
2018-12-22T02:42:42.252Z,982.23
2018-12-22T02:43:44.453Z,982.20
2018-12-22T02:44:51.249Z,982.26
2018-12-22T02:45:57.980Z,982.23
2018-12-22T02:47:04.689Z,982.18
2018-12-22T02:48:11.303Z,982.25
2018-12-22T02:49:18.572Z,982.40
2018-12-22T02:50:25.531Z,982.38
2018-12-22T02:51:32.216Z,982.38
2018-12-22T02:52:38.968Z,982.45
2018-12-22T02:53:45.633Z,982.40
2018-12-22T02:54:52.901Z,982.40
2018-12-22T02:55:59.578Z,982.46
2018-12-22T02:57:06.840Z,982.40
2018-12-22T02:58:13.507Z,982.38
2018-12-22T02:59:20.279Z,982.37
2018-12-22T03:00:26.921Z,982.38
2018-12-22T03:01:34.130Z,982.40
2018-12-22T03:02:40.972Z,982.49
2018-12-22T03:03:47.540Z,982.42
2018-12-22T03:04:54.732Z,982.46
2018-12-22T03:06:01.399Z,982.50
2018-12-22T03:07:08.175Z,982.38
2018-12-22T03:08:14.901Z,982.46
2018-12-22T03:09:21.586Z,982.32
2018-12-22T03:10:28.324Z,982.42
2018-12-22T03:11:35.573Z,982.30
2018-12-22T03:12:42.270Z,982.28
2018-12-22T03:13:48.937Z,982.37
2018-12-22T03:14:56.213Z,982.41
2018-12-22T03:16:02.984Z,982.34
2018-12-22T03:17:09.592Z,982.30
2018-12-22T03:18:16.710Z,982.36
2018-12-22T03:19:23.985Z,982.36
2018-12-22T03:20:30.664Z,982.41
2018-12-22T03:21:37.430Z,982.34
2018-12-22T03:22:44.404Z,982.25
2018-12-22T03:23:51.145Z,982.32
2018-12-22T03:24:57.813Z,982.25
2018-12-22T03:26:05.088Z,982.26
2018-12-22T03:27:11.778Z,982.25
2018-12-22T03:28:18.537Z,982.14
2018-12-22T03:29:25.388Z,982.26
2018-12-22T03:30:32.053Z,982.15
2018-12-22T03:31:39.358Z,982.40
2018-12-22T03:32:45.598Z,982.23
2018-12-22T03:33:52.345Z,982.30
2018-12-22T03:34:59.014Z,982.30
2018-12-22T03:36:06.244Z,982.32
2018-12-22T03:37:12.972Z,982.29
2018-12-22T03:38:19.632Z,982.31
2018-12-22T03:39:26.781Z,982.38
2018-12-22T03:40:33.961Z,982.32
2018-12-22T03:41:40.724Z,982.34
2018-12-22T03:42:47.617Z,982.34
2018-12-22T03:43:54.336Z,982.35
2018-12-22T03:45:01.028Z,982.30
2018-12-22T03:46:08.096Z,982.26
2018-12-22T03:47:14.851Z,982.30
2018-12-22T03:48:21.620Z,982.30
2018-12-22T03:49:28.240Z,982.24
2018-12-22T03:50:35.565Z,982.34
2018-12-22T03:51:42.100Z,982.37
2018-12-22T03:52:49.314Z,982.39
2018-12-22T03:53:55.973Z,982.34
2018-12-22T03:55:02.620Z,982.27
2018-12-22T03:56:09.394Z,982.34
2018-12-22T03:57:16.069Z,982.26
2018-12-22T03:58:22.779Z,982.25
2018-12-22T03:59:29.482Z,982.35
2018-12-22T04:00:36.232Z,982.36
2018-12-22T04:01:42.874Z,982.25
2018-12-22T04:02:50.096Z,982.25
2018-12-22T04:03:56.735Z,982.34
2018-12-22T04:05:03.935Z,982.40
2018-12-22T04:06:11.005Z,982.37
2018-12-22T04:07:17.668Z,982.28
2018-12-22T04:08:25.151Z,982.43
2018-12-22T04:09:31.795Z,982.37
2018-12-22T04:10:39.072Z,982.28
2018-12-22T04:11:45.680Z,982.31
2018-12-22T04:12:52.920Z,982.34
2018-12-22T04:13:59.960Z,982.53
2018-12-22T04:15:06.831Z,982.59
2018-12-22T04:16:13.608Z,982.57
2018-12-22T04:17:20.362Z,982.55
2018-12-22T04:18:27.160Z,982.49
2018-12-22T04:19:33.807Z,982.59
2018-12-22T04:20:40.972Z,982.58
2018-12-22T04:21:47.673Z,982.59
2018-12-22T04:22:55.148Z,982.58
2018-12-22T04:24:01.748Z,982.43
2018-12-22T04:25:08.832Z,982.40
2018-12-22T04:26:15.901Z,982.41
2018-12-22T04:27:23.196Z,982.46
2018-12-22T04:28:29.990Z,982.63
2018-12-22T04:29:36.785Z,982.49
2018-12-22T04:30:43.419Z,982.51
2018-12-22T04:31:50.867Z,982.40
2018-12-22T04:32:57.472Z,982.58
2018-12-22T04:34:04.303Z,982.64
2018-12-22T04:35:10.896Z,982.61
2018-12-22T04:36:18.058Z,982.68
2018-12-22T04:37:24.805Z,982.60
2018-12-22T04:38:31.499Z,982.71
2018-12-22T04:39:38.333Z,982.67
2018-12-22T04:40:45.113Z,982.74
2018-12-22T04:41:51.885Z,982.66
2018-12-22T04:42:58.552Z,982.84
2018-12-22T04:44:05.756Z,982.74
2018-12-22T04:45:12.369Z,982.67
2018-12-22T04:46:19.660Z,982.75
2018-12-22T04:47:26.399Z,982.77
2018-12-22T04:48:33.197Z,982.78
2018-12-22T04:49:39.955Z,982.84
2018-12-22T04:50:46.711Z,982.83
2018-12-22T04:51:53.478Z,982.82
2018-12-22T04:53:00.145Z,982.74
2018-12-22T04:54:07.348Z,982.69
2018-12-22T04:55:14.397Z,982.75
2018-12-22T04:56:21.244Z,982.87
2018-12-22T04:57:27.916Z,982.88
2018-12-22T04:58:35.213Z,982.86
2018-12-22T04:59:43.191Z,982.89
2018-12-22T05:00:48.727Z,982.85
2018-12-22T05:01:55.600Z,982.85
2018-12-22T05:03:02.485Z,982.92
2018-12-22T05:04:09.197Z,982.98
2018-12-22T05:05:15.996Z,982.96
2018-12-22T05:06:22.749Z,983.01
2018-12-22T05:07:29.398Z,982.96
2018-12-22T05:08:36.699Z,982.95
2018-12-22T05:09:43.395Z,983.07
2018-12-22T05:10:50.104Z,983.10
2018-12-22T05:11:56.798Z,983.01
2018-12-22T05:13:03.692Z,983.05
2018-12-22T05:14:10.342Z,983.06
2018-12-22T05:15:17.585Z,983.13
2018-12-22T05:16:24.350Z,983.12
2018-12-22T05:17:31.014Z,983.12
2018-12-22T05:18:37.796Z,983.14
2018-12-22T05:19:44.457Z,983.15
2018-12-22T05:20:51.300Z,983.26
2018-12-22T05:21:57.994Z,983.18
2018-12-22T05:23:04.753Z,983.25
2018-12-22T05:24:11.494Z,983.21
2018-12-22T05:25:19.283Z,983.20
2018-12-22T05:26:25.128Z,983.17
2018-12-22T05:27:31.892Z,983.32
2018-12-22T05:28:38.680Z,983.38
2018-12-22T05:29:51.793Z,983.41
2018-12-22T05:30:52.232Z,983.32
2018-12-22T05:31:58.843Z,983.42
2018-12-22T05:33:06.152Z,983.42
2018-12-22T05:34:12.913Z,983.39
2018-12-22T05:35:19.685Z,983.45
2018-12-22T05:36:26.428Z,983.48
2018-12-22T05:37:33.060Z,983.44
2018-12-22T05:38:40.479Z,983.54
2018-12-22T05:39:47.341Z,983.50
2018-12-22T05:40:54.093Z,983.58
2018-12-22T05:42:00.688Z,983.41
2018-12-22T05:43:08.067Z,983.47
2018-12-22T05:44:14.832Z,983.48
2018-12-22T05:45:21.679Z,983.53
2018-12-22T05:46:28.364Z,983.50
2018-12-22T05:47:35.205Z,983.57
2018-12-22T05:48:41.900Z,983.51
2018-12-22T05:49:48.661Z,983.63
2018-12-22T05:50:55.428Z,983.60
2018-12-22T05:52:02.243Z,983.59
2018-12-22T05:53:08.941Z,983.56
2018-12-22T05:54:15.728Z,983.59
2018-12-22T05:55:22.462Z,983.66
2018-12-22T05:56:29.878Z,983.63
2018-12-22T05:57:36.290Z,983.72
2018-12-22T05:58:42.999Z,983.58
2018-12-22T05:59:49.736Z,983.72
2018-12-22T06:00:56.500Z,983.70
2018-12-22T06:02:03.256Z,983.79
2018-12-22T06:03:11.055Z,983.80
2018-12-22T06:04:16.692Z,983.83
2018-12-22T06:05:23.953Z,983.84
2018-12-22T06:06:30.564Z,983.81
2018-12-22T06:07:37.416Z,983.90
2018-12-22T06:08:44.152Z,984.00
2018-12-22T06:09:50.953Z,983.92
2018-12-22T06:10:57.711Z,983.96
2018-12-22T06:12:04.866Z,983.96
2018-12-22T06:13:11.733Z,983.89
2018-12-22T06:14:18.445Z,983.94
2018-12-22T06:15:25.353Z,983.98
2018-12-22T06:16:32.944Z,983.89
2018-12-22T06:17:39.156Z,983.96
2018-12-22T06:18:45.828Z,983.90
2018-12-22T06:19:52.714Z,983.88
2018-12-22T06:20:59.247Z,983.96
2018-12-22T06:22:06.591Z,983.94
2018-12-22T06:23:13.438Z,983.96
2018-12-22T06:24:20.213Z,983.98
2018-12-22T06:25:26.883Z,983.98
2018-12-22T06:26:33.541Z,984.01
2018-12-22T06:27:40.530Z,984.00
2018-12-22T06:28:47.277Z,984.07
2018-12-22T06:29:54.011Z,984.03
2018-12-22T06:31:00.701Z,984.01
2018-12-22T06:32:07.437Z,984.08
2018-12-22T06:33:14.216Z,984.06
2018-12-22T06:34:20.996Z,984.16
2018-12-22T06:35:27.757Z,984.23
2018-12-22T06:36:34.528Z,984.25
2018-12-22T06:37:41.205Z,984.26
2018-12-22T06:38:47.944Z,984.23
2018-12-22T06:39:54.704Z,984.22
2018-12-22T06:41:01.352Z,984.27
2018-12-22T06:42:08.624Z,984.29
2018-12-22T06:43:15.223Z,984.30
2018-12-22T06:44:22.102Z,984.34
2018-12-22T06:45:28.879Z,984.29
2018-12-22T06:46:35.755Z,984.35
2018-12-22T06:47:42.681Z,984.38
2018-12-22T06:48:49.568Z,984.32
2018-12-22T06:49:56.301Z,984.45
2018-12-22T06:51:02.971Z,984.38
2018-12-22T06:52:10.240Z,984.49
2018-12-22T06:53:16.670Z,984.37
2018-12-22T06:54:23.541Z,984.50
2018-12-22T06:55:30.234Z,984.44
2018-12-22T06:56:37.039Z,984.51
2018-12-22T06:57:43.813Z,984.52
2018-12-22T06:58:50.654Z,984.38
2018-12-22T06:59:58.552Z,984.48
2018-12-22T07:01:04.609Z,984.51
2018-12-22T07:02:11.337Z,984.49
2018-12-22T07:03:18.760Z,984.55
2018-12-22T07:04:25.769Z,984.53
2018-12-22T07:05:32.680Z,984.54
2018-12-22T07:06:39.479Z,984.53
2018-12-22T07:10:39.117Z,984.44
2018-12-22T07:11:45.921Z,984.60
2018-12-22T07:12:52.665Z,984.56
2018-12-22T07:13:59.440Z,984.58
2018-12-22T07:15:06.450Z,984.68
2018-12-22T07:16:13.293Z,984.71
2018-12-22T07:17:20.125Z,984.74
2018-12-22T07:18:27.010Z,984.70
2018-12-22T07:19:33.831Z,984.80
2018-12-22T07:20:41.161Z,984.72
2018-12-22T07:21:47.492Z,984.72
2018-12-22T07:22:54.203Z,984.70
2018-12-22T07:24:00.860Z,984.73
2018-12-22T07:25:07.693Z,984.86
2018-12-22T07:26:14.364Z,984.77
2018-12-22T07:27:21.642Z,984.78
2018-12-22T07:28:28.328Z,984.81
2018-12-22T07:29:35.192Z,984.99
2018-12-22T07:30:41.955Z,984.89
2018-12-22T07:31:48.749Z,984.95
2018-12-22T07:32:57.068Z,984.95
2018-12-22T07:34:02.284Z,985.09
2018-12-22T07:35:08.982Z,985.10
2018-12-22T07:36:15.868Z,985.16
2018-12-22T07:37:22.613Z,985.13
2018-12-22T07:38:29.292Z,985.19
2018-12-22T07:39:36.146Z,985.16
2018-12-22T07:40:42.801Z,985.24
2018-12-22T07:41:51.158Z,985.28
2018-12-22T07:42:56.858Z,985.21
2018-12-22T07:44:04.032Z,985.25
2018-12-22T07:45:10.767Z,985.30
2018-12-22T07:46:17.565Z,985.28
2018-12-22T07:47:24.440Z,985.39
2018-12-22T07:48:31.189Z,985.32
2018-12-22T07:49:37.946Z,985.29
2018-12-22T07:50:44.817Z,985.39
2018-12-22T07:51:51.600Z,985.40
2018-12-22T07:52:58.256Z,985.52
2018-12-22T07:54:05.999Z,985.55
2018-12-22T07:55:12.549Z,985.44
2018-12-22T07:56:19.248Z,985.40
2018-12-22T07:57:26.443Z,985.34
2018-12-22T07:58:33.605Z,985.43
2018-12-22T07:59:40.340Z,985.47
2018-12-22T08:00:46.964Z,985.50
2018-12-22T08:01:54.385Z,985.46
2018-12-22T08:03:01.305Z,985.51
2018-12-22T08:04:08.928Z,985.58
2018-12-22T08:05:14.975Z,985.61
2018-12-22T08:06:22.022Z,985.72
2018-12-22T08:07:28.723Z,985.64
2018-12-22T08:08:36.036Z,985.65
2018-12-22T08:09:42.885Z,985.59
2018-12-22T08:10:49.865Z,985.74
2018-12-22T08:11:56.533Z,985.77
2018-12-22T08:13:03.313Z,985.83
2018-12-22T08:14:10.055Z,985.83
2018-12-22T08:15:17.918Z,985.90
2018-12-22T08:16:23.830Z,985.90
2018-12-22T08:17:30.585Z,985.91
2018-12-22T08:18:37.328Z,985.82
2018-12-22T08:19:43.977Z,985.87
2018-12-22T08:20:50.753Z,985.99
2018-12-22T08:21:57.420Z,986.02
2018-12-22T08:23:04.693Z,985.97
2018-12-22T08:24:11.369Z,986.01
2018-12-22T08:25:18.460Z,986.15
2018-12-22T08:26:25.620Z,986.15
2018-12-22T08:27:32.365Z,986.24
2018-12-22T08:28:39.127Z,986.21
2018-12-22T08:29:45.822Z,986.34
2018-12-22T08:30:52.448Z,986.37
2018-12-22T08:31:59.634Z,986.27
2018-12-22T08:33:06.496Z,986.41
2018-12-22T08:34:13.160Z,986.37
2018-12-22T08:35:20.468Z,986.44
2018-12-22T08:36:27.190Z,986.41
2018-12-22T08:37:35.545Z,986.50
2018-12-22T08:38:41.052Z,986.49
2018-12-22T08:39:47.917Z,986.43
2018-12-22T08:40:54.886Z,986.52
2018-12-22T08:42:01.553Z,986.61
2018-12-22T08:43:08.414Z,986.59
2018-12-22T08:44:15.088Z,986.71
2018-12-22T08:45:22.376Z,986.55
2018-12-22T08:46:29.111Z,986.75
2018-12-22T08:47:35.884Z,986.69
2018-12-22T08:48:42.556Z,986.84
2018-12-22T08:49:49.150Z,986.60
2018-12-22T08:50:56.296Z,986.72
2018-12-22T08:52:03.554Z,986.72
2018-12-22T08:53:10.325Z,986.67
2018-12-22T08:54:16.883Z,986.74
2018-12-22T08:55:24.169Z,986.72
2018-12-22T08:56:30.920Z,986.79
2018-12-22T08:57:37.931Z,986.76
2018-12-22T08:58:44.254Z,986.83
2018-12-22T08:59:51.644Z,986.88
2018-12-22T09:00:58.307Z,986.93
2018-12-22T09:02:05.153Z,986.92
2018-12-22T09:03:11.708Z,986.96
2018-12-22T09:04:18.884Z,986.96
2018-12-22T09:05:26.073Z,987.01
2018-12-22T09:06:32.732Z,987.01
2018-12-22T09:07:40.314Z,986.98
2018-12-22T09:08:46.968Z,987.01
2018-12-22T09:09:54.253Z,987.12
2018-12-22T09:11:01.044Z,987.04
2018-12-22T09:12:07.904Z,987.09
2018-12-22T09:13:20.813Z,987.23
2018-12-22T09:14:21.420Z,987.19
2018-12-22T09:15:28.108Z,987.17
2018-12-22T09:16:34.834Z,987.17
2018-12-22T09:17:41.421Z,987.20
2018-12-22T09:18:48.527Z,987.15
2018-12-22T09:19:55.757Z,987.14
2018-12-22T09:21:02.530Z,987.19
2018-12-22T09:22:09.311Z,987.28
2018-12-22T09:23:17.399Z,987.23
2018-12-22T09:24:23.376Z,987.18
2018-12-22T09:25:30.144Z,987.32
2018-12-22T09:26:36.957Z,987.27
2018-12-22T09:27:43.733Z,987.24
2018-12-22T09:28:50.509Z,987.31
2018-12-22T09:29:57.148Z,987.38
2018-12-22T09:31:03.933Z,987.33
2018-12-22T09:32:10.704Z,987.39
2018-12-22T09:33:17.460Z,987.36
2018-12-22T09:34:24.232Z,987.38
2018-12-22T09:35:30.908Z,987.51
2018-12-22T09:36:37.633Z,987.50
2018-12-22T09:37:44.501Z,987.51
2018-12-22T09:38:51.281Z,987.45
2018-12-22T09:39:57.932Z,987.51
2018-12-22T09:41:05.220Z,987.52
2018-12-22T09:42:11.947Z,987.58
2018-12-22T09:43:18.757Z,987.62
2018-12-22T09:44:25.520Z,987.58
2018-12-22T09:45:32.275Z,987.61
2018-12-22T09:46:39.161Z,987.70
2018-12-22T09:47:45.845Z,987.61
2018-12-22T09:48:52.564Z,987.62
2018-12-22T09:49:59.238Z,987.62
2018-12-22T09:51:06.052Z,987.71
2018-12-22T09:52:12.752Z,987.69
2018-12-22T09:53:19.524Z,987.76
2018-12-22T09:54:26.185Z,987.81
2018-12-22T09:55:32.859Z,987.85
2018-12-22T09:56:40.176Z,987.90
2018-12-22T09:57:46.884Z,987.92
2018-12-22T09:58:53.512Z,987.90
2018-12-22T10:00:00.621Z,987.91
2018-12-22T10:01:09.476Z,987.86
2018-12-22T10:02:14.672Z,987.88
2018-12-22T10:03:21.543Z,987.94
2018-12-22T10:04:28.505Z,987.94
2018-12-22T10:05:35.285Z,987.93
2018-12-22T10:06:42.148Z,988.01
2018-12-22T10:07:48.783Z,987.99
2018-12-22T10:08:55.880Z,987.93
2018-12-22T10:10:03.000Z,988.01
2018-12-22T10:11:10.024Z,988.03
2018-12-22T10:12:16.788Z,987.98
2018-12-22T10:13:23.568Z,988.02
2018-12-22T10:14:30.396Z,988.06
2018-12-22T10:15:37.480Z,988.06
2018-12-22T10:16:44.140Z,987.99
2018-12-22T10:17:51.422Z,988.03
2018-12-22T10:18:58.277Z,987.90
2018-12-22T10:20:05.167Z,988.02
2018-12-22T10:21:11.835Z,987.94
2018-12-22T10:22:18.602Z,988.05
2018-12-22T10:23:25.677Z,987.91
2018-12-22T10:24:32.520Z,987.98
2018-12-22T10:25:39.293Z,987.96
2018-12-22T10:26:45.968Z,987.95
2018-12-22T10:27:53.337Z,988.08
2018-12-22T10:29:00.115Z,988.01
2018-12-22T10:30:06.961Z,988.00
2018-12-22T10:31:17.929Z,988.10
2018-12-22T10:32:20.515Z,988.05
2018-12-22T10:33:27.144Z,988.02
2018-12-22T10:34:34.450Z,988.00
2018-12-22T10:35:41.120Z,988.00
2018-12-22T10:36:48.736Z,987.94
2018-12-22T10:37:55.653Z,988.01
2018-12-22T10:39:02.585Z,988.03
2018-12-22T10:40:09.501Z,988.08
2018-12-22T10:41:16.314Z,988.14
2018-12-22T10:42:23.344Z,988.20
2018-12-22T10:43:30.047Z,988.08
2018-12-22T10:44:37.272Z,988.12
2018-12-22T10:45:44.001Z,988.15
2018-12-22T10:46:50.786Z,988.07
2018-12-22T10:47:57.793Z,988.05
2018-12-22T10:49:04.717Z,988.13
2018-12-22T10:50:11.816Z,988.07
2018-12-22T10:51:24.245Z,988.09
2018-12-22T10:52:25.636Z,988.17
2018-12-22T10:53:32.005Z,988.19
2018-12-22T10:54:38.773Z,988.14
2018-12-22T10:55:45.483Z,988.19
2018-12-22T10:56:52.346Z,988.24
2018-12-22T10:58:00.062Z,988.25
2018-12-22T10:59:06.331Z,988.22
2018-12-22T11:00:13.174Z,988.26
2018-12-22T11:01:26.331Z,988.29
2018-12-22T11:02:26.696Z,988.20
2018-12-22T11:03:33.633Z,988.22
2018-12-22T11:04:40.497Z,988.34
2018-12-22T11:05:47.283Z,988.34
2018-12-22T11:06:54.165Z,988.34
2018-12-22T11:08:00.877Z,988.36
2018-12-22T11:09:09.722Z,988.42
2018-12-22T11:10:14.309Z,988.41
2018-12-22T11:11:21.606Z,988.37
2018-12-22T11:12:28.368Z,988.45
2018-12-22T11:13:35.497Z,988.50
2018-12-22T11:14:45.857Z,988.55
2018-12-22T11:15:49.160Z,988.54
2018-12-22T11:17:10.140Z,988.56
2018-12-22T11:18:16.919Z,988.55
2018-12-22T11:19:23.797Z,988.53
2018-12-22T11:20:30.541Z,988.51
2018-12-22T11:21:37.453Z,988.51
2018-12-22T11:22:44.441Z,988.45
2018-12-22T11:23:51.441Z,988.47
2018-12-22T11:24:59.346Z,988.44
2018-12-22T11:26:05.379Z,988.57
2018-12-22T11:27:12.374Z,988.47
2018-12-22T11:28:19.015Z,988.45
2018-12-22T11:29:26.000Z,988.45
2018-12-22T11:30:32.690Z,988.53
2018-12-22T11:31:42.036Z,988.41
2018-12-22T11:32:46.806Z,988.40
2018-12-22T11:33:53.576Z,988.40
2018-12-22T11:35:00.291Z,988.51
2018-12-22T11:36:07.563Z,988.49
2018-12-22T11:37:19.533Z,988.44
2018-12-22T11:38:21.569Z,988.46
2018-12-22T11:39:28.641Z,988.50
2018-12-22T11:40:35.922Z,988.49
2018-12-22T11:41:42.248Z,988.48
2018-12-22T11:42:49.210Z,988.48
2018-12-22T11:43:55.897Z,988.48
2018-12-22T11:45:05.435Z,988.46
2018-12-22T11:46:10.092Z,988.49
2018-12-22T11:47:16.911Z,988.55
2018-12-22T11:48:23.784Z,988.43
2018-12-22T11:49:30.732Z,988.48
2018-12-22T11:50:37.624Z,988.54
2018-12-22T11:51:44.359Z,988.60
2018-12-22T11:52:51.230Z,988.55
2018-12-22T11:53:58.005Z,988.62
2018-12-22T11:55:04.808Z,988.60
2018-12-22T11:56:12.474Z,988.58
2018-12-22T11:57:18.248Z,988.60
2018-12-22T11:58:25.796Z,988.55
2018-12-22T11:59:32.063Z,988.65
2018-12-22T12:00:38.871Z,988.63
2018-12-22T12:01:45.834Z,988.58
2018-12-22T12:02:52.358Z,988.60
2018-12-22T12:03:59.069Z,988.54
2018-12-22T12:05:05.997Z,988.54
2018-12-22T12:06:12.801Z,988.62
2018-12-22T12:07:19.703Z,988.53
2018-12-22T12:08:26.654Z,988.50
2018-12-22T12:09:33.637Z,988.52
2018-12-22T12:10:40.339Z,988.49
2018-12-22T12:11:47.187Z,988.66
2018-12-22T12:13:00.881Z,988.61
2018-12-22T12:14:01.222Z,988.74
2018-12-22T12:16:15.235Z,988.73
2018-12-22T12:17:21.990Z,988.71
2018-12-22T12:18:29.465Z,988.77
2018-12-22T12:19:35.860Z,988.75
2018-12-22T12:20:42.771Z,988.77
2018-12-22T12:21:49.577Z,988.76
2018-12-22T12:22:58.210Z,988.78
2018-12-22T12:24:03.521Z,988.74
2018-12-22T12:25:10.394Z,988.65
2018-12-22T12:26:17.924Z,988.75
2018-12-22T12:27:28.906Z,988.72
2018-12-22T12:28:31.009Z,988.77
2018-12-22T12:29:37.789Z,988.78
2018-12-22T12:30:44.563Z,988.77
2018-12-22T12:31:52.282Z,988.78
2018-12-22T12:32:58.374Z,988.82
2018-12-22T12:34:05.345Z,988.81
2018-12-22T12:35:12.143Z,988.75
2018-12-22T12:36:18.781Z,988.81
2018-12-22T12:37:25.830Z,988.83
2018-12-22T12:38:32.704Z,988.88
2018-12-22T12:39:39.957Z,988.79
2018-12-22T12:40:46.698Z,988.82
2018-12-22T12:41:59.023Z,988.85
2018-12-22T12:43:00.694Z,988.94
2018-12-22T12:44:07.571Z,988.85
2018-12-22T12:45:14.306Z,988.81
2018-12-22T12:46:21.097Z,988.81
2018-12-22T12:47:27.910Z,988.79
2018-12-22T12:48:35.452Z,988.71
2018-12-22T12:49:41.947Z,988.76
2018-12-22T12:50:48.776Z,988.87
2018-12-22T12:51:55.257Z,988.84
2018-12-22T12:53:09.434Z,988.94
2018-12-22T12:54:08.878Z,988.93
2018-12-22T12:55:15.884Z,988.95
2018-12-22T12:56:22.470Z,988.85
2018-12-22T12:57:29.358Z,988.93
2018-12-22T12:58:36.400Z,988.96
2018-12-22T12:59:43.016Z,988.97
2018-12-22T13:00:49.771Z,989.00
2018-12-22T13:02:01.076Z,989.00
2018-12-22T13:03:03.298Z,989.04
2018-12-22T13:04:10.533Z,988.99
2018-12-22T13:05:17.402Z,989.02
2018-12-22T13:06:24.029Z,989.03
2018-12-22T13:07:30.978Z,989.01
2018-12-22T13:08:38.006Z,989.01
2018-12-22T13:09:45.011Z,988.99
2018-12-22T13:10:52.214Z,989.03
2018-12-22T13:11:59.176Z,989.11
2018-12-22T13:13:06.180Z,989.10
2018-12-22T13:14:12.981Z,989.13
2018-12-22T13:15:23.505Z,989.19
2018-12-22T13:16:26.894Z,989.14
2018-12-22T13:17:33.894Z,989.20
2018-12-22T13:18:40.677Z,989.14
2018-12-22T13:19:47.492Z,989.10
2018-12-22T13:20:54.473Z,989.14
2018-12-22T13:22:01.444Z,989.19
2018-12-22T13:23:08.530Z,989.19
2018-12-22T13:24:15.370Z,989.20
2018-12-22T13:25:22.391Z,989.21
2018-12-22T13:26:36.793Z,989.18
2018-12-22T13:27:36.429Z,989.23
2018-12-22T13:28:43.440Z,989.32
2018-12-22T13:29:50.311Z,989.23
2018-12-22T13:30:56.924Z,989.22
2018-12-22T13:32:09.552Z,989.23
2018-12-22T13:33:11.415Z,989.19
2018-12-22T13:34:17.487Z,989.26
2018-12-22T13:35:24.627Z,989.30
2018-12-22T13:36:34.820Z,989.29
2018-12-22T13:37:38.656Z,989.20
2018-12-22T13:38:45.749Z,989.27
2018-12-22T13:39:52.383Z,989.27
2018-12-22T13:40:59.132Z,989.33
2018-12-22T13:42:06.604Z,989.28
2018-12-22T13:43:13.089Z,989.37
2018-12-22T13:44:20.251Z,989.28
2018-12-22T13:45:26.922Z,989.32
2018-12-22T13:46:34.019Z,989.29
2018-12-22T13:47:41.614Z,989.30
2018-12-22T13:48:48.348Z,989.29
2018-12-22T13:49:55.354Z,989.28
2018-12-22T13:51:02.517Z,989.21
2018-12-22T13:52:09.895Z,989.29
2018-12-22T13:53:15.643Z,989.30
2018-12-22T13:54:22.649Z,989.33
2018-12-22T13:55:29.202Z,989.26
2018-12-22T13:56:36.105Z,989.37
2018-12-22T13:57:42.973Z,989.37
2018-12-22T13:58:49.900Z,989.41